createdAt,value
2018-06-29T00:02:20.193Z,14.70
2018-06-29T00:07:16.917Z,14.70
2018-06-29T00:09:45.382Z,14.70
2018-06-29T00:12:13.860Z,14.70
2018-06-29T00:14:42.292Z,14.80
2018-06-29T00:17:10.808Z,14.70
2018-06-29T00:19:39.505Z,14.80
2018-06-29T00:22:08.049Z,14.80
2018-06-29T00:24:36.586Z,14.70
2018-06-29T00:27:05.306Z,14.70
2018-06-29T00:29:33.748Z,14.70
2018-06-29T00:32:02.262Z,14.70
2018-06-29T00:34:30.738Z,14.70
2018-06-29T00:36:59.208Z,14.80
2018-06-29T00:39:28.284Z,14.70
2018-06-29T00:41:56.856Z,14.70
2018-06-29T00:44:25.333Z,14.70
2018-06-29T00:46:53.836Z,14.70
2018-06-29T00:49:22.289Z,14.60
2018-06-29T00:51:50.901Z,14.60
2018-06-29T00:54:19.597Z,14.60
2018-06-29T00:56:48.013Z,14.60
2018-06-29T00:59:16.525Z,14.60
2018-06-29T01:01:45.001Z,14.60
2018-06-29T01:04:13.484Z,14.60
2018-06-29T01:06:41.982Z,14.60
2018-06-29T01:09:12.359Z,14.60
2018-06-29T01:11:40.848Z,14.60
2018-06-29T01:14:09.425Z,14.60
2018-06-29T01:16:38.381Z,14.60
2018-06-29T01:19:06.925Z,14.60
2018-06-29T01:21:35.573Z,14.60
2018-06-29T01:24:04.364Z,14.70
2018-06-29T01:29:01.313Z,14.60
2018-06-29T01:31:29.779Z,14.60
2018-06-29T01:33:58.253Z,14.60
2018-06-29T01:36:26.728Z,14.70
2018-06-29T01:38:55.263Z,14.60
2018-06-29T01:43:51.863Z,14.70
2018-06-29T01:46:20.339Z,14.70
2018-06-29T01:48:48.824Z,14.70
2018-06-29T01:51:17.257Z,14.70
2018-06-29T01:53:45.710Z,14.70
2018-06-29T01:56:14.160Z,14.70
2018-06-29T01:58:42.709Z,14.70
2018-06-29T02:01:11.229Z,14.70
2018-06-29T02:03:39.740Z,14.70
2018-06-29T02:06:08.305Z,14.70
2018-06-29T02:08:36.952Z,14.70
2018-06-29T02:11:05.702Z,14.60
2018-06-29T02:13:34.165Z,14.70
2018-06-29T02:16:02.649Z,14.60
2018-06-29T02:18:31.428Z,14.60
2018-06-29T02:20:59.949Z,14.70
2018-06-29T02:23:28.410Z,14.60
2018-06-29T02:25:56.852Z,14.70
2018-06-29T02:28:25.333Z,14.60
2018-06-29T02:30:53.895Z,14.70
2018-06-29T02:33:22.239Z,14.70
2018-06-29T02:35:50.950Z,14.60
2018-06-29T02:38:19.414Z,14.70
2018-06-29T02:40:47.914Z,14.60
2018-06-29T02:43:16.329Z,14.70
2018-06-29T02:45:44.828Z,14.60
2018-06-29T02:48:13.336Z,14.70
2018-06-29T02:50:41.833Z,14.60
2018-06-29T02:53:10.301Z,14.60
2018-06-29T02:55:38.761Z,14.60
2018-06-29T02:58:07.300Z,14.60
2018-06-29T03:00:35.851Z,14.70
2018-06-29T03:03:04.537Z,14.70
2018-06-29T03:05:33.087Z,14.70
2018-06-29T03:08:01.689Z,14.70
2018-06-29T03:10:30.141Z,14.70
2018-06-29T03:12:58.654Z,14.70
2018-06-29T03:15:27.797Z,14.70
2018-06-29T03:17:56.256Z,14.70
2018-06-29T03:20:24.715Z,14.70
2018-06-29T03:22:53.453Z,14.70
2018-06-29T03:25:21.881Z,14.70
2018-06-29T03:27:50.410Z,14.70
2018-06-29T03:30:18.921Z,14.70
2018-06-29T03:32:47.353Z,14.70
2018-06-29T03:35:15.812Z,14.80
2018-06-29T03:37:44.240Z,14.80
2018-06-29T03:40:12.845Z,14.80
2018-06-29T03:42:41.245Z,14.80
2018-06-29T03:45:09.707Z,14.80
2018-06-29T03:47:38.165Z,14.80
2018-06-29T03:50:06.737Z,14.80
2018-06-29T03:52:35.245Z,14.70
2018-06-29T03:55:04.109Z,14.70
2018-06-29T03:57:33.424Z,14.70
2018-06-29T04:00:01.904Z,14.70
2018-06-29T04:02:30.352Z,14.70
2018-06-29T04:04:58.777Z,14.70
2018-06-29T04:07:27.252Z,14.70
2018-06-29T04:09:56.351Z,14.80
2018-06-29T04:12:24.807Z,14.80
2018-06-29T04:14:53.295Z,14.80
2018-06-29T04:17:21.796Z,14.70
2018-06-29T04:19:50.217Z,14.80
2018-06-29T04:22:18.864Z,14.90
2018-06-29T04:24:47.347Z,14.80
2018-06-29T04:27:15.917Z,14.90
2018-06-29T04:29:44.373Z,14.90
2018-06-29T04:32:13.591Z,14.90
2018-06-29T04:34:42.047Z,14.90
2018-06-29T04:37:10.575Z,15.00
2018-06-29T04:39:39.034Z,15.10
2018-06-29T04:42:07.553Z,15.10
2018-06-29T04:44:36.066Z,15.20
2018-06-29T04:47:04.601Z,15.20
2018-06-29T04:49:33.076Z,15.20
2018-06-29T04:52:01.541Z,15.20
2018-06-29T04:54:30.093Z,15.20
2018-06-29T04:56:58.554Z,15.20
2018-06-29T04:59:27.097Z,15.20
2018-06-29T05:01:55.597Z,15.20
2018-06-29T05:04:24.421Z,15.20
2018-06-29T05:06:52.969Z,15.20
2018-06-29T05:09:21.520Z,15.30
2018-06-29T05:11:49.964Z,15.30
2018-06-29T05:14:18.423Z,15.40
2018-06-29T05:16:46.913Z,15.40
2018-06-29T05:21:43.658Z,15.50
2018-06-29T05:24:12.096Z,15.60
2018-06-29T05:26:40.564Z,15.70
2018-06-29T05:29:09.003Z,15.70
2018-06-29T05:34:05.732Z,15.80
2018-06-29T05:36:34.161Z,15.90
2018-06-29T05:39:02.660Z,16.00
2018-06-29T05:41:31.180Z,16.00
2018-06-29T05:43:59.581Z,16.00
2018-06-29T05:46:28.054Z,16.00
2018-06-29T05:48:56.615Z,16.10
2018-06-29T05:51:25.615Z,16.30
2018-06-29T05:53:54.062Z,16.30
2018-06-29T05:56:22.501Z,16.30
2018-06-29T05:58:51.134Z,16.30
2018-06-29T06:01:19.662Z,16.50
2018-06-29T06:03:48.273Z,16.50
2018-06-29T06:06:16.745Z,16.50
2018-06-29T06:11:13.586Z,16.50
2018-06-29T06:13:42.240Z,16.50
2018-06-29T06:16:10.767Z,16.60
2018-06-29T06:18:39.138Z,16.80
2018-06-29T06:21:07.804Z,16.90
2018-06-29T06:23:36.881Z,16.90
2018-06-29T06:26:05.417Z,16.90
2018-06-29T06:28:34.522Z,16.80
2018-06-29T06:33:31.333Z,16.90
2018-06-29T06:35:59.775Z,16.90
2018-06-29T06:38:28.296Z,16.90
2018-06-29T06:40:56.914Z,16.90
2018-06-29T06:43:25.492Z,16.80
2018-06-29T06:45:53.967Z,16.90
2018-06-29T06:48:22.414Z,16.90
2018-06-29T06:50:50.970Z,17.00
2018-06-29T06:53:19.419Z,17.10
2018-06-29T06:55:47.856Z,17.20
2018-06-29T06:58:16.287Z,17.20
2018-06-29T07:00:44.828Z,17.20
2018-06-29T07:03:13.373Z,17.20
2018-06-29T07:05:41.925Z,17.10
2018-06-29T07:08:10.481Z,17.10
2018-06-29T07:10:39.576Z,17.10
2018-06-29T07:13:08.106Z,17.10
2018-06-29T07:15:36.586Z,17.20
2018-06-29T07:18:05.053Z,17.30
2018-06-29T07:20:33.826Z,17.30
2018-06-29T07:23:02.265Z,17.30
2018-06-29T07:25:30.726Z,17.30
2018-06-29T07:27:59.207Z,17.30
2018-06-29T07:30:27.696Z,17.30
2018-06-29T07:32:56.170Z,17.30
2018-06-29T07:35:24.644Z,17.50
2018-06-29T07:37:53.573Z,17.50
2018-06-29T07:40:22.100Z,17.60
2018-06-29T07:42:50.701Z,17.60
2018-06-29T07:45:19.245Z,17.50
2018-06-29T07:47:48.543Z,17.50
2018-06-29T07:50:17.009Z,17.50
2018-06-29T07:52:45.544Z,17.40
2018-06-29T07:55:13.970Z,17.40
2018-06-29T07:57:42.454Z,17.40
2018-06-29T08:00:10.921Z,17.30
2018-06-29T08:02:39.700Z,17.30
2018-06-29T08:05:08.288Z,17.30
2018-06-29T08:07:36.859Z,17.40
2018-06-29T08:10:05.385Z,17.40
2018-06-29T08:12:34.633Z,17.40
2018-06-29T08:15:03.255Z,17.40
2018-06-29T08:17:31.713Z,17.40
2018-06-29T08:20:00.375Z,17.40
2018-06-29T08:22:28.921Z,17.40
2018-06-29T08:25:06.521Z,17.40
2018-06-29T08:27:35.018Z,17.50
2018-06-29T08:30:03.639Z,17.50
2018-06-29T08:32:32.273Z,17.70
2018-06-29T08:35:00.876Z,18.00
2018-06-29T08:37:29.475Z,18.20
2018-06-29T08:39:57.949Z,18.30
2018-06-29T08:42:26.506Z,18.50
2018-06-29T08:44:54.952Z,18.50
2018-06-29T08:47:23.476Z,18.60
2018-06-29T08:49:52.556Z,18.70
2018-06-29T08:52:21.220Z,18.80
2018-06-29T08:54:49.635Z,19.10
2018-06-29T08:57:18.212Z,19.40
2018-06-29T08:59:46.674Z,19.60
2018-06-29T09:15:19.693Z,20.10
2018-06-29T09:17:48.238Z,20.30
2018-06-29T09:20:16.742Z,19.80
2018-06-29T09:22:45.196Z,19.80
2018-06-29T09:25:13.649Z,19.80
2018-06-29T09:27:42.144Z,19.90
2018-06-29T09:30:10.787Z,20.00
2018-06-29T09:32:39.361Z,19.90
2018-06-29T09:35:07.939Z,20.00
2018-06-29T09:37:36.452Z,20.20
2018-06-29T09:40:05.005Z,20.60
2018-06-29T09:42:33.560Z,20.90
2018-06-29T09:45:02.078Z,21.20
2018-06-29T09:47:30.604Z,21.60
2018-06-29T09:49:59.133Z,22.00
2018-06-29T09:52:27.710Z,22.50
2018-06-29T09:54:56.231Z,22.80
2018-06-29T09:57:24.837Z,23.20
2018-06-29T09:59:53.246Z,23.20
2018-06-29T10:02:21.760Z,23.00
2018-06-29T10:04:50.661Z,23.10
2018-06-29T10:07:19.225Z,23.20
2018-06-29T10:09:47.801Z,23.40
2018-06-29T10:12:16.309Z,23.50
2018-06-29T10:14:44.753Z,23.60
2018-06-29T10:17:13.217Z,23.60
2018-06-29T10:19:41.885Z,24.00
2018-06-29T10:22:10.431Z,23.80
2018-06-29T10:24:38.860Z,23.90
2018-06-29T10:27:07.289Z,24.60
2018-06-29T10:29:35.802Z,25.00
2018-06-29T10:32:04.304Z,24.80
2018-06-29T10:34:32.792Z,25.10
2018-06-29T10:37:01.302Z,25.20
2018-06-29T10:39:30.017Z,25.40
2018-06-29T10:41:58.679Z,25.30
2018-06-29T10:44:27.249Z,25.20
2018-06-29T10:46:55.774Z,25.00
2018-06-29T10:49:24.275Z,25.30
2018-06-29T10:51:53.040Z,25.70
2018-06-29T10:54:21.476Z,25.90
2018-06-29T10:59:18.169Z,25.60
2018-06-29T11:01:46.637Z,25.40
2018-06-29T11:04:15.273Z,25.10
2018-06-29T11:06:43.938Z,25.00
2018-06-29T11:09:12.461Z,24.80
2018-06-29T11:11:40.951Z,24.80
2018-06-29T11:14:09.598Z,25.20
2018-06-29T11:16:38.725Z,25.70
2018-06-29T11:19:07.189Z,26.00
2018-06-29T11:21:35.674Z,26.20
2018-06-29T11:24:04.142Z,26.30
2018-06-29T11:26:32.589Z,26.30
2018-06-29T11:29:01.027Z,26.70
2018-06-29T11:31:29.518Z,26.80
2018-06-29T11:33:58.030Z,27.00
2018-06-29T11:36:26.496Z,27.00
2018-06-29T11:38:54.921Z,26.90
2018-06-29T11:41:23.355Z,27.20
2018-06-29T11:43:51.965Z,27.10
2018-06-29T11:46:20.445Z,27.00
2018-06-29T11:48:48.904Z,26.80
2018-06-29T11:51:17.386Z,27.10
2018-06-29T11:53:45.824Z,27.30
2018-06-29T11:56:14.269Z,27.50
2018-06-29T11:58:42.776Z,27.70
2018-06-29T12:01:11.288Z,27.70
2018-06-29T12:03:39.964Z,27.70
2018-06-29T12:06:08.438Z,27.80
2018-06-29T12:08:36.912Z,27.70
2018-06-29T12:11:05.597Z,27.60
2018-06-29T12:13:34.053Z,27.20
2018-06-29T12:16:02.661Z,27.00
2018-06-29T12:18:31.113Z,26.90
2018-06-29T12:21:00.195Z,26.60
2018-06-29T12:23:28.643Z,26.70
2018-06-29T12:28:25.376Z,26.60
2018-06-29T12:30:53.857Z,27.00
2018-06-29T12:33:22.383Z,27.40
2018-06-29T12:35:50.873Z,27.70
2018-06-29T12:38:19.329Z,27.70
2018-06-29T12:43:15.992Z,27.30
2018-06-29T12:45:44.548Z,26.70
2018-06-29T12:48:13.162Z,26.50
2018-06-29T12:50:41.861Z,27.10
2018-06-29T12:53:10.289Z,26.90
2018-06-29T12:55:38.787Z,27.00
2018-06-29T12:58:07.256Z,27.00
2018-06-29T13:00:35.761Z,27.30
2018-06-29T13:03:04.257Z,27.30
2018-06-29T13:05:32.889Z,27.30
2018-06-29T13:08:01.185Z,27.30
2018-06-29T13:10:29.649Z,27.30
2018-06-29T13:12:58.275Z,27.30
2018-06-29T13:15:26.761Z,27.30
2018-06-29T13:17:55.317Z,27.50
2018-06-29T13:20:23.825Z,27.30
2018-06-29T13:22:52.313Z,27.30
2018-06-29T13:25:20.935Z,27.10
2018-06-29T13:27:49.449Z,27.10
2018-06-29T13:30:17.913Z,27.20
2018-06-29T13:32:46.365Z,27.20
2018-06-29T13:35:14.854Z,27.40
2018-06-29T13:40:11.592Z,27.80
2018-06-29T13:42:40.108Z,27.70
2018-06-29T13:45:08.598Z,27.30
2018-06-29T13:47:37.094Z,27.20
2018-06-29T13:50:05.574Z,27.20
2018-06-29T13:52:34.070Z,27.30
2018-06-29T13:55:02.836Z,27.30
2018-06-29T13:57:31.329Z,27.60
2018-06-29T13:59:59.809Z,27.80
2018-06-29T14:02:28.640Z,27.90
2018-06-29T14:04:57.106Z,28.00
2018-06-29T14:07:25.624Z,28.00
2018-06-29T14:12:22.600Z,27.70
2018-06-29T14:14:51.069Z,28.20
2018-06-29T14:17:19.585Z,27.90
2018-06-29T14:19:48.164Z,27.30
2018-06-29T14:22:17.201Z,27.30
2018-06-29T14:24:45.625Z,27.50
2018-06-29T14:27:14.472Z,27.70
2018-06-29T14:29:43.594Z,27.80
2018-06-29T14:32:12.048Z,27.80
2018-06-29T14:34:40.893Z,27.80
2018-06-29T14:37:09.321Z,28.10
2018-06-29T14:39:37.764Z,28.20
2018-06-29T14:42:06.469Z,27.80
2018-06-29T14:44:35.019Z,27.70
2018-06-29T14:47:03.673Z,27.80
2018-06-29T14:49:32.176Z,27.70
2018-06-29T14:52:00.909Z,27.70
2018-06-29T14:54:29.435Z,27.80
2018-06-29T14:56:58.008Z,27.90
2018-06-29T14:59:26.514Z,27.80
2018-06-29T15:01:55.204Z,27.60
2018-06-29T15:04:23.776Z,27.50
2018-06-29T15:06:52.305Z,27.60
2018-06-29T15:09:21.009Z,27.60
2018-06-29T15:11:49.446Z,27.60
2018-06-29T15:14:17.884Z,27.60
2018-06-29T15:16:46.326Z,27.50
2018-06-29T15:19:15.440Z,27.30
2018-06-29T15:21:44.044Z,27.00
2018-06-29T15:24:13.228Z,27.00
2018-06-29T15:26:41.666Z,27.10
2018-06-29T15:29:10.197Z,27.20
2018-06-29T15:31:38.827Z,26.90
2018-06-29T15:34:07.441Z,26.60
2018-06-29T15:36:35.946Z,26.50
2018-06-29T15:39:06.753Z,26.30
2018-06-29T15:41:35.441Z,26.30
2018-06-29T15:44:03.982Z,26.30
2018-06-29T15:46:32.440Z,26.50
2018-06-29T15:49:00.929Z,26.50
2018-06-29T15:53:57.614Z,26.70
2018-06-29T15:56:26.089Z,26.50
2018-06-29T15:58:54.603Z,26.30
2018-06-29T16:01:23.142Z,26.20
2018-06-29T16:03:51.569Z,26.20
2018-06-29T16:06:20.113Z,26.20
2018-06-29T16:11:16.965Z,26.30
2018-06-29T16:16:13.585Z,26.30
2018-06-29T16:18:42.216Z,26.30
2018-06-29T16:21:11.502Z,26.40
2018-06-29T16:23:40.725Z,26.30
2018-06-29T16:26:09.205Z,26.10
2018-06-29T16:28:37.653Z,26.10
2018-06-29T16:31:06.321Z,26.00
2018-06-29T16:33:34.832Z,26.00
2018-06-29T16:36:03.308Z,25.90
2018-06-29T16:38:31.792Z,26.00
2018-06-29T16:41:00.284Z,26.00
2018-06-29T16:43:29.362Z,26.00
2018-06-29T16:45:57.897Z,25.90
2018-06-29T16:48:26.401Z,25.90
2018-06-29T16:50:54.936Z,25.80
2018-06-29T16:53:23.408Z,25.80
2018-06-29T16:55:51.942Z,25.70
2018-06-29T16:58:20.476Z,25.50
2018-06-29T17:00:48.973Z,25.40
2018-06-29T17:03:17.454Z,25.30
2018-06-29T17:08:14.065Z,25.20
2018-06-29T17:10:42.534Z,25.30
2018-06-29T17:13:11.199Z,25.20
2018-06-29T17:15:39.783Z,25.20
2018-06-29T17:18:08.649Z,25.30
2018-06-29T17:20:37.177Z,25.30
2018-06-29T17:23:06.396Z,25.30
2018-06-29T17:25:34.920Z,25.30
2018-06-29T17:28:03.864Z,25.30
2018-06-29T17:30:32.428Z,25.20
2018-06-29T17:33:00.893Z,25.10
2018-06-29T17:35:29.660Z,25.00
2018-06-29T17:37:58.505Z,24.80
2018-06-29T17:40:26.965Z,24.60
2018-06-29T17:42:55.876Z,24.50
2018-06-29T17:45:24.329Z,24.50
2018-06-29T17:47:53.158Z,24.40
2018-06-29T17:50:21.655Z,24.10
2018-06-29T17:52:50.179Z,24.00
2018-06-29T17:55:18.725Z,24.00
2018-06-29T17:57:47.181Z,23.90
2018-06-29T18:00:15.665Z,23.80
2018-06-29T18:02:44.149Z,23.70
2018-06-29T18:05:12.677Z,23.50
2018-06-29T18:07:41.342Z,23.50
2018-06-29T18:10:09.821Z,23.30
2018-06-29T18:12:38.305Z,23.20
2018-06-29T18:15:06.838Z,23.10
2018-06-29T18:17:35.289Z,23.10
2018-06-29T18:22:31.924Z,23.00
2018-06-29T18:25:00.494Z,22.90
2018-06-29T18:27:29.090Z,22.80
2018-06-29T18:29:57.553Z,22.80
2018-06-29T18:32:26.141Z,22.80
2018-06-29T18:34:54.809Z,22.70
2018-06-29T18:37:23.302Z,22.50
2018-06-29T18:39:51.790Z,22.40
2018-06-29T18:42:20.248Z,22.40
2018-06-29T18:44:49.324Z,22.30
2018-06-29T18:47:17.878Z,22.30
2018-06-29T18:52:15.244Z,22.00
2018-06-29T18:54:44.042Z,22.00
2018-06-29T18:57:12.578Z,21.90
2018-06-29T18:59:41.084Z,21.90
2018-06-29T19:02:09.712Z,21.80
2018-06-29T19:04:38.528Z,21.70
2018-06-29T19:07:06.989Z,21.50
2018-06-29T19:09:35.588Z,21.40
2018-06-29T19:12:04.637Z,21.40
2018-06-29T19:14:33.120Z,21.30
2018-06-29T19:17:01.671Z,21.10
2018-06-29T19:19:30.152Z,21.10
2018-06-29T19:21:58.695Z,21.10
2018-06-29T19:24:27.566Z,20.90
2018-06-29T19:26:56.078Z,20.80
2018-06-29T19:29:24.582Z,20.50
2018-06-29T19:31:53.047Z,20.40
2018-06-29T19:34:21.697Z,20.30
2018-06-29T19:36:50.481Z,20.30
2018-06-29T19:39:18.932Z,20.30
2018-06-29T19:41:47.510Z,20.20
2018-06-29T19:44:16.206Z,20.20
2018-06-29T19:46:44.885Z,20.10
2018-06-29T19:49:13.372Z,20.00
2018-06-29T19:51:41.889Z,19.90
2018-06-29T19:54:10.370Z,19.70
2018-06-29T19:56:38.886Z,19.60
2018-06-29T19:59:07.337Z,19.50
2018-06-29T20:01:35.894Z,19.40
2018-06-29T20:04:04.577Z,19.40
2018-06-29T20:06:33.137Z,19.40
2018-06-29T20:09:01.634Z,19.30
2018-06-29T20:11:30.196Z,19.10
2018-06-29T20:13:58.669Z,19.00
2018-06-29T20:16:27.233Z,19.00
2018-06-29T20:18:55.686Z,19.00
2018-06-29T20:21:24.737Z,18.90
2018-06-29T20:23:53.264Z,18.80
2018-06-29T20:26:22.244Z,18.80
2018-06-29T20:28:50.729Z,18.70
2018-06-29T20:31:19.181Z,18.60
2018-06-29T20:33:47.665Z,18.60
2018-06-29T20:36:16.609Z,18.50
2018-06-29T20:38:45.320Z,18.50
2018-06-29T20:41:13.699Z,18.40
2018-06-29T20:43:42.351Z,18.40
2018-06-29T20:46:10.813Z,18.20
2018-06-29T20:48:39.572Z,18.20
2018-06-29T20:51:08.094Z,18.10
2018-06-29T20:53:36.576Z,18.10
2018-06-29T20:56:05.174Z,18.00
2018-06-29T20:58:33.746Z,17.90
2018-06-29T21:01:03.223Z,17.80
2018-06-29T21:03:31.707Z,17.70
2018-06-29T21:06:00.160Z,17.60
2018-06-29T21:08:28.689Z,17.70
2018-06-29T21:10:57.256Z,17.70
2018-06-29T21:13:25.756Z,17.60
2018-06-29T21:15:54.220Z,17.40
2018-06-29T21:18:23.663Z,17.30
2018-06-29T21:20:52.314Z,17.20
2018-06-29T21:23:20.801Z,17.10
2018-06-29T21:25:49.257Z,17.20
2018-06-29T21:28:17.677Z,17.20
2018-06-29T21:30:46.289Z,17.20
2018-06-29T21:33:14.734Z,17.00
2018-06-29T21:35:43.233Z,17.00
2018-06-29T21:38:11.886Z,17.00
2018-06-29T21:40:40.641Z,17.00
2018-06-29T21:43:09.124Z,16.90
2018-06-29T21:45:37.567Z,16.80
2018-06-29T21:48:07.077Z,16.70
2018-06-29T21:50:35.888Z,16.60
2018-06-29T21:53:04.345Z,16.50
2018-06-29T21:55:32.761Z,16.50
2018-06-29T21:58:01.253Z,16.40
2018-06-29T22:00:34.973Z,16.50
2018-06-29T22:03:09.395Z,16.40
2018-06-29T22:05:39.550Z,16.40
2018-06-29T22:08:08.988Z,16.40
2018-06-29T22:10:38.052Z,16.30
2018-06-29T22:13:06.753Z,16.20
2018-06-29T22:15:35.185Z,16.10
2018-06-29T22:18:04.317Z,16.10
2018-06-29T22:20:32.825Z,16.10
2018-06-29T22:23:01.296Z,16.10
2018-06-29T22:25:29.779Z,16.10
2018-06-29T22:27:58.265Z,16.10
2018-06-29T22:30:26.761Z,16.00
2018-06-29T22:32:55.213Z,15.90
2018-06-29T22:35:24.277Z,15.80
2018-06-29T22:37:52.852Z,15.80
2018-06-29T22:40:22.049Z,15.90
2018-06-29T22:42:50.476Z,15.80
2018-06-29T22:45:18.944Z,15.70
2018-06-29T22:47:47.397Z,15.70
2018-06-29T22:50:16.005Z,15.60
2018-06-29T22:52:44.444Z,15.50
2018-06-29T22:55:12.962Z,15.40
2018-06-29T22:57:41.446Z,15.40
2018-06-29T23:00:10.493Z,15.40
2018-06-29T23:05:07.353Z,15.30
2018-06-29T23:07:35.875Z,15.20
2018-06-29T23:10:04.642Z,15.20
2018-06-29T23:12:33.113Z,15.20
2018-06-29T23:15:01.596Z,15.20
2018-06-29T23:17:30.057Z,15.10
2018-06-29T23:19:58.505Z,15.10
2018-06-29T23:22:27.537Z,15.10
2018-06-29T23:24:56.068Z,15.00
2018-06-29T23:27:24.553Z,14.90
2018-06-29T23:29:53.065Z,14.90
2018-06-29T23:32:21.657Z,14.80
2018-06-29T23:34:50.172Z,14.80
2018-06-29T23:37:18.665Z,14.80
2018-06-29T23:39:47.381Z,14.80
2018-06-29T23:42:15.848Z,14.80
2018-06-29T23:44:44.410Z,14.70
2018-06-29T23:47:13.056Z,14.80
2018-06-29T23:49:41.505Z,14.70
2018-06-29T23:52:10.081Z,14.70
2018-06-29T23:54:38.547Z,14.60
2018-06-29T23:57:07.016Z,14.50
2018-06-29T23:59:35.465Z,14.50
